Time;durP1;ratioP1;P1;durP2;ratioP2;P2;SDS_P1;SDS_P2;PMS_P1;PMS_P2;Temp;Humidity;BMP_temperature;BMP_pressure;BME280_temperature;BME280_humidity;BME280_pressure;Samples;Min_cycle;Max_cycle;Signal;HPM_P1;HPM_P2
2022/12/30 00:00:26;;;;;;;1.73;0.40;;;6.60;99.90;;;;;;5067174;28;20032;-68
2022/12/30 00:02:52;;;;;;;1.38;0.50;;;6.60;99.90;;;;;;5057495;28;20039;-67
2022/12/30 00:05:17;;;;;;;1.42;0.50;;;6.60;99.90;;;;;;5056334;28;20076;-66
2022/12/30 00:07:43;;;;;;;1.10;0.57;;;6.60;99.90;;;;;;5058659;28;20058;-68
2022/12/30 00:10:08;;;;;;;2.85;0.47;;;6.60;99.90;;;;;;5065095;28;20112;-68
2022/12/30 00:34:42;;;;;;;1.42;0.68;;;6.50;99.90;;;;;;5053946;28;20113;-67
2022/12/30 00:37:08;;;;;;;1.88;0.50;;;6.50;99.90;;;;;;5067597;28;20119;-67
2022/12/30 00:39:33;;;;;;;0.95;0.30;;;6.50;99.90;;;;;;5063763;28;20097;-67
2022/12/30 00:44:43;;;;;;;1.58;0.50;;;6.50;99.90;;;;;;5049607;28;20446;-68
2022/12/30 00:47:10;;;;;;;1.75;0.50;;;6.50;99.90;;;;;;5056616;28;20115;-67
2022/12/30 00:57:48;;;;;;;1.85;0.60;;;6.50;99.90;;;;;;5061754;28;20112;-68
2022/12/30 01:00:14;;;;;;;1.83;0.50;;;6.50;99.90;;;;;;5057449;28;20457;-63
2022/12/30 01:02:40;;;;;;;2.78;0.40;;;6.50;99.90;;;;;;5066212;28;20032;-67
2022/12/30 01:05:06;;;;;;;1.33;0.45;;;6.50;99.90;;;;;;5063939;28;20029;-66
2022/12/30 01:07:32;;;;;;;1.35;0.40;;;6.50;99.90;;;;;;5061426;28;20028;-67
2022/12/30 01:09:58;;;;;;;1.70;0.57;;;6.50;99.90;;;;;;5067011;28;20037;-67
2022/12/30 01:12:25;;;;;;;1.25;0.65;;;6.50;99.90;;;;;;5063580;28;20036;-67
2022/12/30 01:14:53;;;;;;;2.03;0.50;;;6.40;99.90;;;;;;5066888;28;20051;-67
2022/12/30 01:17:23;;;;;;;1.48;0.30;;;6.40;99.90;;;;;;5059236;28;20033;-67
2022/12/30 01:19:49;;;;;;;2.90;0.67;;;6.40;99.90;;;;;;5056651;28;20040;-67
2022/12/30 01:22:14;;;;;;;4.50;0.35;;;6.40;99.90;;;;;;5066014;28;20024;-66
2022/12/30 01:24:40;;;;;;;0.30;0.30;;;6.40;99.90;;;;;;5064862;28;20126;-67
2022/12/30 01:27:06;;;;;;;2.35;0.55;;;6.40;99.90;;;;;;5071273;28;20041;-67
2022/12/30 01:29:36;;;;;;;1.40;0.43;;;6.30;99.90;;;;;;5066951;28;20020;-66
2022/12/30 01:32:04;;;;;;;0.77;0.40;;;6.30;99.90;;;;;;5061332;28;20028;-65
2022/12/30 01:34:29;;;;;;;1.60;0.40;;;6.30;99.90;;;;;;5048285;28;20048;-67
2022/12/30 01:36:55;;;;;;;3.47;0.57;;;6.30;99.90;;;;;;5062169;28;20037;-67
2022/12/30 01:39:21;;;;;;;2.30;0.45;;;6.30;99.90;;;;;;5063840;28;20032;-65
2022/12/30 01:41:47;;;;;;;1.83;0.70;;;6.30;99.90;;;;;;5074781;28;20029;-67
2022/12/30 01:44:52;;;;;;;1.92;0.50;;;6.20;99.90;;;;;;5048694;28;20021;-68
2022/12/30 01:47:20;;;;;;;1.40;0.50;;;6.20;99.90;;;;;;5054957;28;20504;-65
2022/12/30 01:49:50;;;;;;;1.83;1.05;;;6.20;99.90;;;;;;5068486;28;20107;-69
2022/12/30 01:52:20;;;;;;;3.92;0.57;;;6.30;99.90;;;;;;5062171;28;20039;-67
2022/12/30 01:54:47;;;;;;;1.45;0.40;;;6.20;99.90;;;;;;5058385;28;20461;-67
2022/12/30 01:57:14;;;;;;;2.22;0.50;;;6.20;99.90;;;;;;5072971;28;20044;-67
2022/12/30 01:59:41;;;;;;;1.58;0.70;;;6.20;99.90;;;;;;5046371;28;20021;-68
2022/12/30 02:02:06;;;;;;;1.15;0.55;;;6.10;99.90;;;;;;5064386;28;20139;-66
2022/12/30 02:04:33;;;;;;;2.45;0.63;;;6.10;99.90;;;;;;5067445;28;20528;-68
2022/12/30 02:07:24;;;;;;;3.50;0.57;;;6.10;99.90;;;;;;5067358;28;20041;-68
2022/12/30 02:09:50;;;;;;;2.80;0.50;;;6.10;99.90;;;;;;5069431;28;20032;-67
2022/12/30 02:12:16;;;;;;;1.00;0.30;;;6.00;99.90;;;;;;5069122;28;20477;-68
2022/12/30 02:14:45;;;;;;;3.30;0.70;;;6.00;99.90;;;;;;5070561;28;20032;-66
2022/12/30 02:17:29;;;;;;;1.25;0.40;;;6.00;99.90;;;;;;5071318;28;20448;-69
2022/12/30 02:20:07;;;;;;;2.90;0.77;;;6.00;99.90;;;;;;5072191;28;20568;-67
2022/12/30 02:22:50;;;;;;;1.52;0.50;;;5.90;99.90;;;;;;5069595;28;20535;-67
2022/12/30 02:25:22;;;;;;;2.40;0.68;;;5.90;99.90;;;;;;5067450;28;20048;-66
2022/12/30 02:28:06;;;;;;;1.52;0.60;;;5.90;99.90;;;;;;5068615;28;20048;-67
2022/12/30 02:30:39;;;;;;;6.32;0.40;;;5.90;99.90;;;;;;5066648;28;20040;-66
2022/12/30 02:33:38;;;;;;;4.00;0.50;;;5.90;99.90;;;;;;5072012;28;20043;-65
2022/12/30 02:36:17;;;;;;;1.17;0.43;;;5.90;99.90;;;;;;5028581;28;20133;-67
2022/12/30 02:38:51;;;;;;;1.35;0.50;;;5.90;99.90;;;;;;5051318;28;20037;-67
2022/12/30 02:44:36;;;;;;;3.45;0.57;;;5.80;99.90;;;;;;5070343;28;20031;-66
2022/12/30 02:47:06;;;;;;;1.60;0.60;;;5.80;99.90;;;;;;5066748;28;20043;-66
2022/12/30 02:49:35;;;;;;;3.97;0.70;;;5.80;99.90;;;;;;5069316;28;20476;-67
2022/12/30 02:52:14;;;;;;;2.60;0.60;;;5.80;99.90;;;;;;5071558;28;20035;-66
2022/12/30 02:54:45;;;;;;;1.00;0.50;;;5.90;99.90;;;;;;5067336;28;20036;-67
2022/12/30 02:57:29;;;;;;;1.83;0.90;;;5.80;99.90;;;;;;5051166;28;20120;-67
2022/12/30 03:06:12;;;;;;;2.38;0.60;;;5.90;99.90;;;;;;5057512;28;20036;-66
2022/12/30 03:08:47;;;;;;;;;;;5.90;99.90;;;;;;5050927;28;20029;-68
2022/12/30 03:11:17;;;;;;;2.40;0.70;;;5.90;99.90;;;;;;5058421;28;19912;-67
2022/12/30 03:13:58;;;;;;;3.40;0.70;;;5.90;99.90;;;;;;5061721;28;20102;-67
2022/12/30 03:16:50;;;;;;;4.43;0.73;;;6.00;99.90;;;;;;5062663;28;20059;-64
2022/12/30 03:19:20;;;;;;;1.23;0.50;;;6.00;99.90;;;;;;5050207;28;20040;-67
2022/12/30 03:21:50;;;;;;;0.65;0.43;;;5.90;99.90;;;;;;5055509;28;20042;-66
2022/12/30 03:27:07;;;;;;;1.48;0.68;;;5.70;99.90;;;;;;5071940;28;20424;-67
2022/12/30 03:29:39;;;;;;;0.80;0.45;;;5.60;99.90;;;;;;5067796;28;20024;-66
2022/12/30 03:32:08;;;;;;;1.95;0.68;;;5.70;99.90;;;;;;5058045;28;20037;-65
2022/12/30 03:34:34;;;;;;;1.75;0.77;;;5.70;99.90;;;;;;5053931;28;20043;-69
2022/12/30 03:37:22;;;;;;;4.32;0.73;;;5.70;99.90;;;;;;5063695;28;20442;-67
2022/12/30 03:40:11;;;;;;;1.45;0.80;;;5.60;99.90;;;;;;5066172;28;20029;-67
2022/12/30 03:42:37;;;;;;;1.95;0.65;;;5.60;99.90;;;;;;5070321;28;20048;-67
2022/12/30 03:45:04;;;;;;;2.33;0.70;;;5.40;99.90;;;;;;5059707;28;20033;-66
2022/12/30 03:47:30;;;;;;;1.88;0.70;;;5.30;99.90;;;;;;5064413;28;20519;-69
2022/12/30 03:49:55;;;;;;;2.78;1.08;;;5.20;99.90;;;;;;5061578;28;20029;-68
2022/12/30 03:52:21;;;;;;;3.35;0.80;;;5.30;99.90;;;;;;5065004;28;20493;-66
2022/12/30 03:54:50;;;;;;;2.75;0.70;;;5.30;99.90;;;;;;5049369;28;20075;-66
2022/12/30 03:57:17;;;;;;;2.65;0.82;;;5.40;99.90;;;;;;5054797;28;20040;-67
2022/12/30 03:59:43;;;;;;;4.32;1.60;;;5.40;99.90;;;;;;5060021;28;20017;-67
2022/12/30 04:02:09;;;;;;;170.57;6.00;;;5.40;99.90;;;;;;5050382;28;20037;-68
2022/12/30 04:04:35;;;;;;;5.43;2.00;;;5.40;99.90;;;;;;5064309;28;20086;-67
2022/12/30 04:07:02;;;;;;;11.30;2.70;;;5.30;99.90;;;;;;5060415;28;20093;-66
2022/12/30 04:09:28;;;;;;;4.82;2.45;;;5.30;99.90;;;;;;5063467;28;20401;-63
2022/12/30 04:11:53;;;;;;;5.60;2.50;;;5.30;99.90;;;;;;5065338;28;20021;-67
2022/12/30 04:14:19;;;;;;;4.40;2.10;;;5.30;99.90;;;;;;5076870;28;20631;-68
2022/12/30 04:16:45;;;;;;;4.65;1.42;;;5.20;99.90;;;;;;5062849;28;20063;-66
2022/12/30 04:19:10;;;;;;;2.70;1.00;;;5.10;99.90;;;;;;5068800;28;20381;-67
2022/12/30 04:21:36;;;;;;;3.50;1.45;;;5.00;99.90;;;;;;5055312;28;20075;-67
2022/12/30 04:24:02;;;;;;;3.80;1.10;;;5.00;99.90;;;;;;5061673;28;20486;-67
2022/12/30 04:26:28;;;;;;;2.13;1.10;;;4.90;99.90;;;;;;5068299;28;20052;-65
2022/12/30 04:28:53;;;;;;;2.90;1.05;;;4.80;99.90;;;;;;5069482;28;20039;-68
2022/12/30 04:31:19;;;;;;;3.83;1.10;;;4.80;99.90;;;;;;5080685;28;20031;-68
2022/12/30 04:33:49;;;;;;;1.55;0.70;;;4.80;99.90;;;;;;5089113;28;20715;-67
2022/12/30 04:36:15;;;;;;;5.05;0.90;;;4.80;99.90;;;;;;5068187;28;20067;-67
2022/12/30 04:38:40;;;;;;;1.92;1.13;;;4.80;99.90;;;;;;5067873;28;20511;-67
2022/12/30 04:41:06;;;;;;;3.45;1.00;;;4.80;99.90;;;;;;5069486;28;20020;-67
2022/12/30 04:43:32;;;;;;;1.60;0.77;;;4.80;99.90;;;;;;5066138;28;20041;-67
2022/12/30 04:45:57;;;;;;;3.60;0.90;;;4.80;99.90;;;;;;5065281;28;20024;-67
2022/12/30 04:48:23;;;;;;;71.65;2.53;;;4.80;99.90;;;;;;5061474;28;20056;-67
2022/12/30 04:50:49;;;;;;;15.15;1.50;;;4.70;99.90;;;;;;5060976;28;20108;-67
2022/12/30 04:53:14;;;;;;;3.45;1.20;;;4.60;99.90;;;;;;5065539;28;20100;-66
2022/12/30 04:55:40;;;;;;;52.85;2.03;;;4.60;99.90;;;;;;5065832;28;20622;-67
2022/12/30 04:58:06;;;;;;;325.58;7.35;;;4.50;99.90;;;;;;5068117;28;20136;-68
2022/12/30 05:00:33;;;;;;;9.73;1.77;;;4.30;99.90;;;;;;5065029;28;20027;-67
2022/12/30 05:02:59;;;;;;;4.18;1.60;;;4.20;99.90;;;;;;5067707;28;20028;-68
2022/12/30 05:05:25;;;;;;;4.22;1.88;;;4.10;99.90;;;;;;5065412;28;20439;-67
2022/12/30 05:07:51;;;;;;;3.10;1.48;;;4.10;99.90;;;;;;5064719;28;20028;-68
2022/12/30 05:10:16;;;;;;;4.38;1.92;;;4.10;99.90;;;;;;5066672;28;20059;-66
2022/12/30 05:12:42;;;;;;;7.70;1.90;;;4.00;99.90;;;;;;5051143;28;20048;-67
2022/12/30 05:15:08;;;;;;;4.82;1.85;;;3.90;99.90;;;;;;5071371;28;20058;-67
2022/12/30 05:17:34;;;;;;;3.42;1.30;;;3.90;99.90;;;;;;5071156;28;20031;-66
2022/12/30 05:20:00;;;;;;;3.03;1.02;;;3.90;99.90;;;;;;5068958;28;20025;-67
2022/12/30 05:22:26;;;;;;;64.25;3.03;;;3.80;99.90;;;;;;5052353;28;20031;-66
2022/12/30 05:27:35;;;;;;;10.57;2.20;;;3.70;99.90;;;;;;5064788;28;20067;-67
2022/12/30 05:30:01;;;;;;;13.00;1.77;;;3.70;99.90;;;;;;5088946;28;20028;-67
2022/12/30 05:32:27;;;;;;;24.35;1.95;;;3.60;99.90;;;;;;5082606;28;20040;-67
2022/12/30 05:34:52;;;;;;;6.18;2.08;;;3.60;99.90;;;;;;5067000;28;20028;-67
2022/12/30 05:37:18;;;;;;;3.78;1.85;;;3.50;99.90;;;;;;5051797;28;20052;-66
2022/12/30 05:39:44;;;;;;;13.07;1.63;;;3.50;99.90;;;;;;5054012;28;20064;-67
2022/12/30 05:42:09;;;;;;;7.00;1.88;;;3.50;99.90;;;;;;5061220;28;20043;-67
2022/12/30 05:44:35;;;;;;;5.57;2.30;;;3.50;99.90;;;;;;5079997;28;20253;-65
2022/12/30 05:47:01;;;;;;;13.05;5.15;;;3.50;99.90;;;;;;5061279;28;20063;-67
2022/12/30 05:49:26;;;;;;;5.93;2.78;;;3.40;99.90;;;;;;5070730;28;20036;-66
2022/12/30 05:51:52;;;;;;;5.28;2.58;;;3.30;99.90;;;;;;5067162;28;20122;-66
2022/12/30 05:54:18;;;;;;;4.68;1.90;;;3.20;99.90;;;;;;5071456;28;20071;-66
2022/12/30 05:56:43;;;;;;;5.97;2.10;;;3.20;99.90;;;;;;5069931;28;20102;-68
2022/12/30 05:59:10;;;;;;;3.50;1.63;;;3.10;99.90;;;;;;5065240;28;20096;-67
2022/12/30 06:01:36;;;;;;;2.83;1.45;;;3.10;99.90;;;;;;5073380;28;20027;-64
2022/12/30 06:04:02;;;;;;;6.22;2.30;;;3.10;99.90;;;;;;5069392;28;20036;-66
2022/12/30 06:06:28;;;;;;;45.03;3.85;;;3.10;99.90;;;;;;5068600;28;20037;-65
2022/12/30 06:08:53;;;;;;;33.88;2.30;;;3.10;99.90;;;;;;5065926;28;20033;-66
2022/12/30 06:11:19;;;;;;;141.98;4.40;;;3.00;99.90;;;;;;5069454;28;20111;-66
2022/12/30 06:13:45;;;;;;;265.40;6.68;;;2.90;99.90;;;;;;5052222;28;20116;-66
2022/12/30 06:16:11;;;;;;;106.75;3.08;;;2.80;99.90;;;;;;5056999;28;20116;-65
2022/12/30 06:18:36;;;;;;;37.83;3.13;;;2.70;99.90;;;;;;5075646;28;20102;-66
2022/12/30 06:21:02;;;;;;;131.60;4.05;;;2.50;99.90;;;;;;5070947;28;20037;-67
2022/12/30 06:23:28;;;;;;;94.47;3.08;;;2.40;99.90;;;;;;5070923;28;20033;-67
2022/12/30 06:25:55;;;;;;;10.05;2.25;;;2.30;99.90;;;;;;5071059;28;20687;-68
2022/12/30 06:28:22;;;;;;;6.63;1.80;;;2.20;99.90;;;;;;5070075;28;20032;-66
2022/12/30 06:30:48;;;;;;;18.73;2.00;;;2.20;99.90;;;;;;5063767;28;20119;-65
2022/12/30 06:33:15;;;;;;;5.25;2.10;;;2.20;99.90;;;;;;5063698;28;20078;-66
2022/12/30 06:35:41;;;;;;;15.02;2.35;;;2.20;99.90;;;;;;5062918;28;20497;-66
2022/12/30 06:38:06;;;;;;;28.23;5.60;;;2.10;99.90;;;;;;5072707;28;20032;-64
2022/12/30 06:40:32;;;;;;;93.95;7.72;;;2.00;99.90;;;;;;5057110;28;20528;-66
2022/12/30 06:42:58;;;;;;;82.47;8.43;;;2.00;99.90;;;;;;5056360;28;20527;-64
2022/12/30 06:45:23;;;;;;;76.40;6.22;;;2.00;99.90;;;;;;5061784;28;20025;-66
2022/12/30 06:47:49;;;;;;;57.65;6.40;;;2.00;99.90;;;;;;5062812;28;20029;-66
2022/12/30 06:50:15;;;;;;;48.70;5.68;;;1.90;99.90;;;;;;5062905;28;20032;-65
2022/12/30 06:52:41;;;;;;;51.72;4.60;;;2.00;99.90;;;;;;5062888;28;20035;-65
2022/12/30 06:55:07;;;;;;;7.22;2.70;;;1.90;99.90;;;;;;5066862;28;20069;-64
2022/12/30 06:57:33;;;;;;;19.67;3.22;;;2.00;99.90;;;;;;5051730;28;20623;-65
2022/12/30 06:59:59;;;;;;;50.67;3.28;;;2.00;99.90;;;;;;5049435;28;20028;-68
2022/12/30 07:02:25;;;;;;;57.55;3.63;;;2.00;99.90;;;;;;5064344;28;20109;-66
2022/12/30 07:04:51;;;;;;;82.95;3.38;;;2.10;99.90;;;;;;5054740;28;20503;-66
2022/12/30 07:07:16;;;;;;;10.85;1.80;;;2.00;99.90;;;;;;5058541;28;20770;-65
2022/12/30 07:09:42;;;;;;;4.85;2.03;;;1.90;99.90;;;;;;5078101;28;20032;-64
2022/12/30 07:12:08;;;;;;;21.02;4.53;;;1.90;99.90;;;;;;5068826;28;20039;-66
2022/12/30 07:14:33;;;;;;;22.88;7.07;;;1.90;99.90;;;;;;5072242;28;20044;-62
2022/12/30 07:16:59;;;;;;;45.75;7.35;;;1.80;99.90;;;;;;5075713;28;20157;-63
2022/12/30 07:19:25;;;;;;;36.75;8.45;;;1.70;99.90;;;;;;5067069;28;20048;-63
2022/12/30 07:21:51;;;;;;;77.15;24.70;;;1.60;99.90;;;;;;5061270;28;20040;-65
2022/12/30 07:24:16;;;;;;;34.05;11.93;;;1.60;99.90;;;;;;5058573;28;20036;-64
2022/12/30 07:26:42;;;;;;;14.43;6.13;;;1.60;99.90;;;;;;5066503;28;20425;-65
2022/12/30 07:29:07;;;;;;;41.47;11.23;;;1.60;99.90;;;;;;5064630;28;20477;-65
2022/12/30 07:31:33;;;;;;;64.55;10.20;;;1.60;99.90;;;;;;5055786;28;20462;-64
2022/12/30 07:33:59;;;;;;;22.15;9.93;;;1.60;99.90;;;;;;5057110;28;20028;-64
2022/12/30 07:36:25;;;;;;;90.72;20.98;;;1.60;99.90;;;;;;5065499;28;20112;-64
2022/12/30 07:38:50;;;;;;;40.88;13.52;;;1.60;99.90;;;;;;5059386;28;20969;-63
2022/12/30 07:41:16;;;;;;;17.83;7.70;;;1.60;99.90;;;;;;5058766;28;20063;-64
2022/12/30 07:43:42;;;;;;;22.42;9.98;;;1.50;99.90;;;;;;5061753;28;20093;-66
2022/12/30 07:46:09;;;;;;;197.77;65.47;;;1.60;99.90;;;;;;5060166;28;20093;-64
2022/12/30 07:48:35;;;;;;;60.38;21.40;;;1.60;99.90;;;;;;5057022;28;20041;-64
2022/12/30 07:51:15;;;;;;;41.95;18.77;;;1.50;99.90;;;;;;5065386;28;20032;-64
2022/12/30 07:53:41;;;;;;;52.65;9.02;;;1.50;99.90;;;;;;5049662;28;20055;-64
2022/12/30 07:56:08;;;;;;;157.93;9.15;;;1.50;99.90;;;;;;5070383;28;20039;-63
2022/12/30 07:58:34;;;;;;;159.77;7.68;;;1.40;99.90;;;;;;5076538;28;20366;-63
2022/12/30 08:01:18;;;;;;;16.00;5.45;;;1.40;99.90;;;;;;5068933;28;20040;-62
2022/12/30 08:03:44;;;;;;;62.53;6.72;;;1.40;99.90;;;;;;5069552;28;20037;-64
2022/12/30 08:06:12;;;;;;;32.70;5.63;;;1.40;99.90;;;;;;5069572;28;20029;-62
2022/12/30 08:08:38;;;;;;;172.13;8.10;;;1.30;99.90;;;;;;5069548;28;20047;-64
2022/12/30 08:11:05;;;;;;;28.40;4.22;;;1.40;99.90;;;;;;5068567;28;20048;-64
2022/12/30 08:13:33;;;;;;;99.43;6.18;;;1.40;99.90;;;;;;5069951;28;20111;-63
2022/12/30 08:15:59;;;;;;;17.63;3.75;;;1.40;99.90;;;;;;5069549;28;20051;-63
2022/12/30 08:18:24;;;;;;;21.40;3.88;;;1.40;99.90;;;;;;5070167;28;20334;-64
2022/12/30 08:20:50;;;;;;;13.02;3.40;;;1.40;99.90;;;;;;5068797;28;20033;-64
2022/12/30 08:23:15;;;;;;;7.10;3.60;;;1.50;99.90;;;;;;5069431;28;20020;-63
2022/12/30 08:25:41;;;;;;;26.73;3.83;;;1.60;99.90;;;;;;5066151;28;20028;-65
2022/12/30 08:28:07;;;;;;;6.50;3.58;;;1.80;99.90;;;;;;5069143;28;20101;-65
2022/12/30 08:30:32;;;;;;;18.15;8.48;;;1.90;99.90;;;;;;5064537;28;20036;-64
2022/12/30 08:32:58;;;;;;;78.63;14.80;;;2.00;99.90;;;;;;5067221;28;20090;-64
2022/12/30 08:35:24;;;;;;;246.50;10.80;;;2.20;99.90;;;;;;5058643;28;20079;-64
2022/12/30 08:37:49;;;;;;;13.45;5.70;;;2.20;99.90;;;;;;5064932;28;20050;-63
2022/12/30 08:40:15;;;;;;;12.82;5.88;;;2.10;99.90;;;;;;5049291;28;20112;-65
2022/12/30 08:42:41;;;;;;;81.20;9.63;;;2.10;99.90;;;;;;5048438;28;20029;-66
2022/12/30 08:45:08;;;;;;;40.25;7.32;;;2.30;99.90;;;;;;5051086;28;20021;-65
2022/12/30 08:47:34;;;;;;;77.45;8.50;;;2.40;99.90;;;;;;5089386;28;20028;-64
2022/12/30 08:50:00;;;;;;;103.75;8.90;;;2.50;99.90;;;;;;5088798;28;20057;-63
2022/12/30 08:52:27;;;;;;;14.70;7.47;;;2.60;99.90;;;;;;5089551;28;20032;-63
2022/12/30 08:54:53;;;;;;;20.10;5.50;;;2.60;99.90;;;;;;5088003;28;20485;-64
2022/12/30 08:57:19;;;;;;;10.90;5.45;;;2.70;99.90;;;;;;5085125;28;20036;-64
2022/12/30 08:59:44;;;;;;;43.08;5.80;;;2.80;99.90;;;;;;5066377;28;20397;-64
2022/12/30 09:02:14;;;;;;;53.08;6.28;;;2.80;99.90;;;;;;5089203;28;20028;-65
2022/12/30 09:04:40;;;;;;;10.90;5.13;;;2.90;99.90;;;;;;5089388;28;20028;-64
2022/12/30 09:07:06;;;;;;;15.77;5.70;;;3.00;99.90;;;;;;5088842;28;20035;-64
2022/12/30 09:09:32;;;;;;;11.98;6.00;;;3.20;99.90;;;;;;5088957;28;20452;-65
2022/12/30 09:11:57;;;;;;;9.18;4.95;;;3.40;99.90;;;;;;5088420;28;20054;-65
2022/12/30 09:14:23;;;;;;;9.23;5.25;;;3.50;99.90;;;;;;5087738;28;20473;-63
2022/12/30 09:16:49;;;;;;;7.93;5.00;;;3.60;99.90;;;;;;5087954;28;20061;-64
2022/12/30 09:19:16;;;;;;;15.57;7.03;;;3.80;99.90;;;;;;5088841;28;20106;-65
2022/12/30 09:21:41;;;;;;;14.30;7.03;;;3.90;99.90;;;;;;5088604;28;20028;-64
2022/12/30 09:24:09;;;;;;;14.88;6.57;;;4.00;99.90;;;;;;5088673;28;20416;-65
2022/12/30 09:26:35;;;;;;;11.43;5.57;;;4.30;99.90;;;;;;5088474;28;20102;-66
2022/12/30 09:29:02;;;;;;;10.68;4.30;;;4.60;99.90;;;;;;5069821;28;20045;-66
2022/12/30 09:31:28;;;;;;;8.65;4.88;;;4.90;99.90;;;;;;5074964;28;20085;-65
2022/12/30 09:33:54;;;;;;;7.00;3.53;;;5.20;99.90;;;;;;5068096;28;20029;-63
2022/12/30 09:36:20;;;;;;;8.55;3.25;;;5.50;99.90;;;;;;5068833;28;20048;-64
2022/12/30 09:38:46;;;;;;;6.70;3.13;;;5.70;99.90;;;;;;5067805;28;20050;-65
2022/12/30 09:43:14;;;;;;;4.35;2.47;;;5.90;99.90;;;;;;5068282;28;20033;-63
2022/12/30 09:44:32;;;;;;;10.68;5.00;;;6.00;99.90;;;;;;5067297;28;20040;-64
2022/12/30 09:46:58;;;;;;;19.15;9.75;;;6.30;99.90;;;;;;5087423;28;20119;-63
2022/12/30 09:49:41;;;;;;;9.88;5.35;;;6.50;99.90;;;;;;5088440;28;20575;-64
2022/12/30 09:52:13;;;;;;;14.77;6.30;;;6.60;99.90;;;;;;5088167;28;20024;-64
2022/12/30 09:54:44;;;;;;;14.75;7.90;;;6.70;99.90;;;;;;5088917;28;20050;-65
2022/12/30 10:00:11;;;;;;;19.98;9.23;;;7.00;99.90;;;;;;5066498;28;20279;-65
2022/12/30 10:03:09;;;;;;;13.32;6.30;;;7.20;99.90;;;;;;5077440;28;20114;-63
2022/12/30 10:05:42;;;;;;;11.23;4.50;;;7.30;99.90;;;;;;5086818;28;20451;-64
2022/12/30 10:08:35;;;;;;;10.73;4.82;;;7.40;99.90;;;;;;5087807;28;20028;-64
2022/12/30 10:11:33;;;;;;;10.98;4.82;;;7.50;99.90;;;;;;5087602;28;20489;-63
2022/12/30 10:14:30;;;;;;;9.43;3.20;;;7.70;99.90;;;;;;5033480;28;20127;-64
2022/12/30 10:17:19;;;;;;;2.75;1.65;;;7.80;99.90;;;;;;5085388;28;20036;-64
2022/12/30 10:20:00;;;;;;;4.30;1.75;;;7.80;99.90;;;;;;5088412;28;20099;-65
2022/12/30 10:22:30;;;;;;;;;;;7.90;99.90;;;;;;5086402;28;20051;-65
2022/12/30 10:25:34;;;;;;;3.47;1.83;;;7.90;99.90;;;;;;5087802;28;19957;-64
2022/12/30 10:28:02;;;;;;;2.65;1.27;;;7.90;99.90;;;;;;5067550;28;20044;-63
2022/12/30 10:30:37;;;;;;;2.80;1.30;;;7.90;99.90;;;;;;5068668;28;20090;-65
2022/12/30 10:33:08;;;;;;;3.92;1.13;;;8.10;99.90;;;;;;5051260;28;20036;-65
2022/12/30 10:35:34;;;;;;;;;;;8.10;99.90;;;;;;5052482;28;20355;-65
2022/12/30 10:38:18;;;;;;;2.88;1.13;;;8.20;99.90;;;;;;5051103;28;19909;-62
2022/12/30 10:41:17;;;;;;;2.83;1.02;;;8.40;99.90;;;;;;5051545;28;20390;-64
2022/12/30 10:44:24;;;;;;;5.18;2.08;;;8.60;99.90;;;;;;5051828;28;20021;-63
2022/12/30 10:47:01;;;;;;;1.73;0.98;;;8.80;99.90;;;;;;5079347;28;20031;-65
2022/12/30 10:50:05;;;;;;;1.30;0.50;;;8.80;99.90;;;;;;5091902;28;20059;-64
2022/12/30 10:52:30;;;;;;;4.88;2.17;;;8.90;99.90;;;;;;5077924;28;20028;-64
2022/12/30 10:54:56;;;;;;;10.70;1.15;;;9.00;99.90;;;;;;5090780;28;20110;-64
2022/12/30 10:57:31;;;;;;;2.05;0.52;;;9.00;99.90;;;;;;5083000;28;20036;-64
2022/12/30 10:59:58;;;;;;;0.80;0.43;;;9.10;99.90;;;;;;5069637;28;20397;-63
2022/12/30 11:02:33;;;;;;;2.45;0.75;;;9.20;99.90;;;;;;5071534;28;20023;-63
2022/12/30 11:05:02;;;;;;;0.82;0.30;;;9.10;99.90;;;;;;5070249;28;20032;-64
2022/12/30 11:07:27;;;;;;;2.75;0.43;;;9.00;99.90;;;;;;5071362;28;20044;-64
2022/12/30 11:09:53;;;;;;;0.85;0.20;;;8.90;99.90;;;;;;5070324;28;20021;-63
2022/12/30 11:15:21;;;;;;;0.90;0.40;;;8.70;99.90;;;;;;5073844;28;20147;-65
2022/12/30 11:17:48;;;;;;;0.68;0.30;;;8.60;99.90;;;;;;5091460;28;20077;-64
2022/12/30 11:20:14;;;;;;;1.10;0.40;;;8.90;99.90;;;;;;5090504;28;20528;-63
2022/12/30 11:22:51;;;;;;;2.22;1.30;;;8.90;99.90;;;;;;5090949;28;20103;-65
2022/12/30 11:25:27;;;;;;;0.70;0.30;;;8.90;99.90;;;;;;5071368;28;20552;-63
2022/12/30 11:28:01;;;;;;;9.13;0.57;;;9.00;99.90;;;;;;5069697;28;20049;-66
2022/12/30 11:30:38;;;;;;;1.85;0.30;;;9.10;99.90;;;;;;5074258;28;20020;-65
2022/12/30 11:33:14;;;;;;;2.15;0.40;;;9.20;99.90;;;;;;5089903;28;20063;-64
2022/12/30 11:35:43;;;;;;;0.77;0.52;;;9.10;99.90;;;;;;5089491;28;20039;-64
2022/12/30 11:38:36;;;;;;;1.17;0.40;;;9.30;99.90;;;;;;5086785;28;20065;-65
2022/12/30 11:41:19;;;;;;;2.15;0.50;;;9.20;99.90;;;;;;5087144;28;20048;-66
2022/12/30 11:44:05;;;;;;;1.58;0.50;;;9.10;99.90;;;;;;5090801;28;20024;-63
2022/12/30 11:46:55;;;;;;;1.67;0.50;;;9.30;99.90;;;;;;5090995;28;20032;-65
2022/12/30 11:49:28;;;;;;;0.80;0.40;;;9.30;99.90;;;;;;5090836;28;20031;-65
2022/12/30 11:52:06;;;;;;;5.53;0.65;;;9.30;99.90;;;;;;5087494;28;20868;-67
2022/12/30 11:54:37;;;;;;;1.35;0.68;;;9.30;99.90;;;;;;5077521;28;20060;-64
2022/12/30 11:57:18;;;;;;;1.08;0.57;;;9.60;99.90;;;;;;5069039;28;20032;-64
2022/12/30 11:59:47;;;;;;;1.10;0.70;;;9.80;99.90;;;;;;5070470;28;20021;-63
2022/12/30 12:02:18;;;;;;;2.58;0.70;;;9.80;99.90;;;;;;5069559;28;20727;-63
2022/12/30 12:04:44;;;;;;;1.13;0.65;;;9.90;99.90;;;;;;5070268;28;20025;-64
2022/12/30 12:07:16;;;;;;;1.75;0.75;;;9.90;99.90;;;;;;5074517;28;20051;-64
2022/12/30 12:09:47;;;;;;;1.73;0.70;;;9.90;99.90;;;;;;5088785;28;20540;-64
2022/12/30 12:12:16;;;;;;;1.95;1.10;;;9.90;99.90;;;;;;5089522;28;20212;-65
2022/12/30 12:15:20;;;;;;;1.80;0.70;;;9.90;99.90;;;;;;5089971;28;20165;-65
2022/12/30 12:18:11;;;;;;;1.83;0.80;;;10.20;99.90;;;;;;5090209;28;20034;-64
2022/12/30 12:20:58;;;;;;;1.50;1.00;;;10.40;99.90;;;;;;5063221;28;20039;-65
2022/12/30 12:23:47;;;;;;;3.03;1.67;;;10.10;99.90;;;;;;5067827;28;20029;-65
2022/12/30 12:26:16;;;;;;;2.75;1.33;;;9.90;99.90;;;;;;5068015;28;20718;-64
2022/12/30 12:28:43;;;;;;;1.85;1.27;;;10.00;99.90;;;;;;5069485;28;20051;-63
2022/12/30 12:31:43;;;;;;;1.65;1.10;;;9.80;99.90;;;;;;5068299;28;20025;-65
2022/12/30 12:34:34;;;;;;;2.70;1.30;;;9.70;99.90;;;;;;5068670;28;20043;-64
2022/12/30 12:37:27;;;;;;;4.03;1.17;;;9.70;99.90;;;;;;5070394;28;20047;-65
2022/12/30 12:40:20;;;;;;;1.83;1.20;;;9.60;99.90;;;;;;5085334;28;20033;-66
2022/12/30 12:43:02;;;;;;;2.13;1.25;;;9.40;99.90;;;;;;5069238;28;20037;-64
2022/12/30 12:45:49;;;;;;;2.55;1.60;;;9.30;99.90;;;;;;5069197;28;20377;-65
2022/12/30 12:48:27;;;;;;;2.17;1.45;;;9.20;99.90;;;;;;5068317;28;20025;-65
2022/12/30 12:51:01;;;;;;;2.53;1.20;;;9.10;99.90;;;;;;5069151;28;20080;-64
2022/12/30 12:53:42;;;;;;;2.95;1.67;;;9.10;99.90;;;;;;5082511;28;20039;-64
2022/12/30 12:56:19;;;;;;;2.25;1.10;;;9.00;99.90;;;;;;5074710;28;20032;-65
2022/12/30 12:59:12;;;;;;;2.08;1.13;;;9.00;99.90;;;;;;5069092;28;20062;-64
2022/12/30 13:01:54;;;;;;;2.85;0.82;;;9.00;99.90;;;;;;5064476;28;20505;-64
2022/12/30 13:04:20;;;;;;;2.28;0.80;;;9.00;99.90;;;;;;5061483;28;20473;-63
2022/12/30 13:06:45;;;;;;;1.45;0.85;;;9.10;99.90;;;;;;5063321;28;20025;-64
2022/12/30 13:10:05;;;;;;;4.07;1.50;;;9.10;99.90;;;;;;5062998;28;20034;-64
2022/12/30 13:12:46;;;;;;;2.65;1.05;;;9.10;99.90;;;;;;4982575;28;20114;-65
2022/12/30 13:15:22;;;;;;;1.70;1.10;;;9.10;99.90;;;;;;5068162;28;20028;-64
2022/12/30 13:17:50;;;;;;;1.98;1.05;;;9.00;99.90;;;;;;5059702;28;20116;-64
2022/12/30 13:20:22;;;;;;;2.58;1.08;;;9.00;99.90;;;;;;5055243;28;20024;-64
2022/12/30 13:22:49;;;;;;;3.45;1.25;;;9.00;99.90;;;;;;5054844;28;20120;-64
2022/12/30 13:25:29;;;;;;;3.50;1.48;;;9.00;99.90;;;;;;5066420;28;20058;-65
2022/12/30 13:27:57;;;;;;;3.85;1.85;;;9.00;99.90;;;;;;5059076;28;20056;-66
2022/12/30 13:30:26;;;;;;;2.83;1.45;;;8.90;99.90;;;;;;5068036;28;20067;-65
2022/12/30 13:33:03;;;;;;;1.90;0.93;;;8.90;99.90;;;;;;5080075;28;20036;-63
2022/12/30 13:35:29;;;;;;;5.55;1.10;;;8.90;99.90;;;;;;5083393;28;20420;-65
2022/12/30 13:38:02;;;;;;;4.28;1.65;;;8.90;99.90;;;;;;5068782;28;20066;-64
2022/12/30 13:40:39;;;;;;;3.60;1.90;;;8.80;99.90;;;;;;5055170;28;20091;-65
2022/12/30 13:43:20;;;;;;;2.03;1.25;;;8.80;99.90;;;;;;5047612;28;20029;-64
2022/12/30 13:45:47;;;;;;;2.05;1.30;;;8.70;99.90;;;;;;5048352;28;20029;-65
2022/12/30 13:48:15;;;;;;;2.83;1.40;;;8.80;99.90;;;;;;5076547;28;20134;-65
2022/12/30 13:50:42;;;;;;;2.00;1.05;;;8.70;99.90;;;;;;5088666;28;20237;-65
2022/12/30 13:53:35;;;;;;;1.38;0.93;;;8.80;99.90;;;;;;5088170;28;20028;-66
2022/12/30 13:56:03;;;;;;;2.38;0.80;;;8.80;99.90;;;;;;5087239;28;20434;-67
2022/12/30 13:58:36;;;;;;;2.95;0.75;;;8.80;99.90;;;;;;5088615;28;20040;-64
2022/12/30 14:01:39;;;;;;;1.50;0.70;;;8.80;99.90;;;;;;5080455;28;20042;-65
2022/12/30 14:04:11;;;;;;;1.33;0.88;;;8.80;99.90;;;;;;5078978;28;20051;-65
2022/12/30 14:06:50;;;;;;;1.58;0.70;;;8.80;99.90;;;;;;5092698;28;20067;-65